sensor_id;sensor_type;location;lat;lon;timestamp;P1;durP1;ratioP1;P2;durP2;ratioP2
2710;SDS011;20721;47.402;8.550;2024-01-15T00:00:49;22.74;;;21.73;;
2710;SDS011;20721;47.402;8.550;2024-01-15T00:02:48;19.19;;;18.87;;
2710;SDS011;20721;47.402;8.550;2024-01-15T00:05:48;18.69;;;18.20;;
2710;SDS011;20721;47.402;8.550;2024-01-15T00:08:49;18.11;;;17.67;;
2710;SDS011;20721;47.402;8.550;2024-01-15T00:10:50;17.42;;;17.12;;
2710;SDS011;20721;47.402;8.550;2024-01-15T00:12:48;17.48;;;17.04;;
2710;SDS011;20721;47.402;8.550;2024-01-15T00:14:48;18.44;;;17.86;;
2710;SDS011;20721;47.402;8.550;2024-01-15T00:16:49;16.42;;;16.06;;
2710;SDS011;20721;47.402;8.550;2024-01-15T00:19:49;15.89;;;15.52;;
2710;SDS011;20721;47.402;8.550;2024-01-15T00:21:48;15.67;;;15.30;;
2710;SDS011;20721;47.402;8.550;2024-01-15T00:25:51;14.95;;;14.67;;
2710;SDS011;20721;47.402;8.550;2024-01-15T00:27:48;14.56;;;14.24;;
2710;SDS011;20721;47.402;8.550;2024-01-15T00:29:49;13.61;;;13.38;;
2710;SDS011;20721;47.402;8.550;2024-01-15T00:31:49;12.85;;;12.59;;
2710;SDS011;20721;47.402;8.550;2024-01-15T00:33:49;12.77;;;12.49;;
2710;SDS011;20721;47.402;8.550;2024-01-15T00:35:48;13.14;;;12.81;;
2710;SDS011;20721;47.402;8.550;2024-01-15T00:37:49;11.24;;;11.04;;
2710;SDS011;20721;47.402;8.550;2024-01-15T00:39:48;12.99;;;12.76;;
2710;SDS011;20721;47.402;8.550;2024-01-15T00:42:48;12.26;;;11.89;;
2710;SDS011;20721;47.402;8.550;2024-01-15T00:44:48;12.65;;;12.40;;
2710;SDS011;20721;47.402;8.550;2024-01-15T00:46:52;12.42;;;12.16;;
2710;SDS011;20721;47.402;8.550;2024-01-15T00:48:49;11.91;;;11.78;;
2710;SDS011;20721;47.402;8.550;2024-01-15T00:50:48;12.80;;;12.53;;
2710;SDS011;20721;47.402;8.550;2024-01-15T00:53:48;11.63;;;11.42;;
2710;SDS011;20721;47.402;8.550;2024-01-15T00:57:49;11.01;;;11.01;;
2710;SDS011;20721;47.402;8.550;2024-01-15T00:59:49;11.42;;;11.23;;
2710;SDS011;20721;47.402;8.550;2024-01-15T01:01:53;11.59;;;11.42;;
2710;SDS011;20721;47.402;8.550;2024-01-15T01:03:52;11.68;;;11.38;;
2710;SDS011;20721;47.402;8.550;2024-01-15T01:06:49;12.49;;;12.23;;
2710;SDS011;20721;47.402;8.550;2024-01-15T01:08:49;14.57;;;14.28;;
2710;SDS011;20721;47.402;8.550;2024-01-15T01:10:48;14.97;;;14.71;;
2710;SDS011;20721;47.402;8.550;2024-01-15T01:13:48;15.24;;;14.94;;
2710;SDS011;20721;47.402;8.550;2024-01-15T01:15:49;16.87;;;16.42;;
2710;SDS011;20721;47.402;8.550;2024-01-15T01:17:49;18.12;;;17.80;;
2710;SDS011;20721;47.402;8.550;2024-01-15T01:19:49;18.32;;;17.83;;
2710;SDS011;20721;47.402;8.550;2024-01-15T01:21:49;20.59;;;19.77;;
2710;SDS011;20721;47.402;8.550;2024-01-15T01:23:48;20.10;;;19.71;;
2710;SDS011;20721;47.402;8.550;2024-01-15T01:27:49;19.40;;;18.95;;
2710;SDS011;20721;47.402;8.550;2024-01-15T01:29:48;19.49;;;19.08;;
2710;SDS011;20721;47.402;8.550;2024-01-15T01:31:52;18.29;;;18.02;;
2710;SDS011;20721;47.402;8.550;2024-01-15T01:33:49;17.09;;;17.08;;
2710;SDS011;20721;47.402;8.550;2024-01-15T01:35:49;18.55;;;18.16;;
2710;SDS011;20721;47.402;8.550;2024-01-15T01:37:49;17.76;;;17.62;;
2710;SDS011;20721;47.402;8.550;2024-01-15T01:40:52;19.11;;;18.82;;
2710;SDS011;20721;47.402;8.550;2024-01-15T01:42:49;19.15;;;18.74;;
2710;SDS011;20721;47.402;8.550;2024-01-15T01:45:49;18.82;;;18.39;;
2710;SDS011;20721;47.402;8.550;2024-01-15T01:47:49;18.41;;;18.20;;
2710;SDS011;20721;47.402;8.550;2024-01-15T01:49:50;18.65;;;18.38;;
2710;SDS011;20721;47.402;8.550;2024-01-15T01:52:49;18.15;;;17.90;;
2710;SDS011;20721;47.402;8.550;2024-01-15T01:55:49;17.78;;;17.55;;
2710;SDS011;20721;47.402;8.550;2024-01-15T01:57:49;17.27;;;16.96;;
2710;SDS011;20721;47.402;8.550;2024-01-15T01:59:49;18.89;;;18.55;;
2710;SDS011;20721;47.402;8.550;2024-01-15T02:01:49;18.74;;;18.26;;
2710;SDS011;20721;47.402;8.550;2024-01-15T02:03:50;18.74;;;18.48;;
2710;SDS011;20721;47.402;8.550;2024-01-15T02:05:49;18.32;;;18.10;;
2710;SDS011;20721;47.402;8.550;2024-01-15T02:07:49;20.23;;;19.76;;
2710;SDS011;20721;47.402;8.550;2024-01-15T02:09:49;18.46;;;18.14;;
2710;SDS011;20721;47.402;8.550;2024-01-15T02:11:49;18.82;;;18.58;;
2710;SDS011;20721;47.402;8.550;2024-01-15T02:13:49;18.92;;;18.36;;
2710;SDS011;20721;47.402;8.550;2024-01-15T02:15:49;19.71;;;19.22;;
2710;SDS011;20721;47.402;8.550;2024-01-15T02:18:13;18.84;;;18.30;;
2710;SDS011;20721;47.402;8.550;2024-01-15T02:19:50;21.59;;;20.93;;
2710;SDS011;20721;47.402;8.550;2024-01-15T02:21:49;21.59;;;20.53;;
2710;SDS011;20721;47.402;8.550;2024-01-15T02:23:52;20.26;;;19.67;;
2710;SDS011;20721;47.402;8.550;2024-01-15T02:26:49;21.55;;;20.82;;
2710;SDS011;20721;47.402;8.550;2024-01-15T02:28:49;22.19;;;21.24;;
2710;SDS011;20721;47.402;8.550;2024-01-15T02:30:50;21.76;;;20.99;;
2710;SDS011;20721;47.402;8.550;2024-01-15T02:32:49;21.78;;;20.90;;
2710;SDS011;20721;47.402;8.550;2024-01-15T02:34:49;21.96;;;20.61;;
2710;SDS011;20721;47.402;8.550;2024-01-15T02:37:49;23.78;;;22.73;;
2710;SDS011;20721;47.402;8.550;2024-01-15T02:39:49;22.79;;;21.84;;
2710;SDS011;20721;47.402;8.550;2024-01-15T02:41:49;24.22;;;23.44;;
2710;SDS011;20721;47.402;8.550;2024-01-15T02:43:49;24.23;;;22.78;;
2710;SDS011;20721;47.402;8.550;2024-01-15T02:45:49;27.10;;;25.24;;
2710;SDS011;20721;47.402;8.550;2024-01-15T02:47:49;28.14;;;25.59;;
2710;SDS011;20721;47.402;8.550;2024-01-15T02:50:49;24.83;;;23.42;;
2710;SDS011;20721;47.402;8.550;2024-01-15T02:53:49;25.19;;;23.78;;
2710;SDS011;20721;47.402;8.550;2024-01-15T02:55:49;26.06;;;24.29;;
2710;SDS011;20721;47.402;8.550;2024-01-15T02:57:49;24.12;;;22.89;;
2710;SDS011;20721;47.402;8.550;2024-01-15T03:00:53;24.84;;;23.72;;
2710;SDS011;20721;47.402;8.550;2024-01-15T03:02:50;28.15;;;26.16;;
2710;SDS011;20721;47.402;8.550;2024-01-15T03:04:53;25.86;;;23.97;;
2710;SDS011;20721;47.402;8.550;2024-01-15T03:06:49;25.77;;;23.83;;
2710;SDS011;20721;47.402;8.550;2024-01-15T03:08:49;25.71;;;24.22;;
2710;SDS011;20721;47.402;8.550;2024-01-15T03:10:49;22.60;;;21.49;;
2710;SDS011;20721;47.402;8.550;2024-01-15T03:12:49;22.56;;;21.46;;
2710;SDS011;20721;47.402;8.550;2024-01-15T03:14:49;25.73;;;23.83;;
2710;SDS011;20721;47.402;8.550;2024-01-15T03:16:49;23.20;;;21.85;;
2710;SDS011;20721;47.402;8.550;2024-01-15T03:18:49;22.66;;;21.44;;
2710;SDS011;20721;47.402;8.550;2024-01-15T03:20:49;25.90;;;24.08;;
2710;SDS011;20721;47.402;8.550;2024-01-15T03:22:49;26.24;;;24.15;;
2710;SDS011;20721;47.402;8.550;2024-01-15T03:24:49;23.41;;;21.91;;
2710;SDS011;20721;47.402;8.550;2024-01-15T03:26:49;24.50;;;22.48;;
2710;SDS011;20721;47.402;8.550;2024-01-15T03:28:49;25.44;;;23.64;;
2710;SDS011;20721;47.402;8.550;2024-01-15T03:30:49;24.72;;;23.41;;
2710;SDS011;20721;47.402;8.550;2024-01-15T03:32:49;24.72;;;22.56;;
2710;SDS011;20721;47.402;8.550;2024-01-15T03:35:49;23.97;;;22.22;;
2710;SDS011;20721;47.402;8.550;2024-01-15T03:37:53;23.75;;;22.13;;
2710;SDS011;20721;47.402;8.550;2024-01-15T03:39:49;24.67;;;22.57;;
2710;SDS011;20721;47.402;8.550;2024-01-15T03:41:49;21.18;;;19.66;;
2710;SDS011;20721;47.402;8.550;2024-01-15T03:43:49;21.44;;;19.32;;
2710;SDS011;20721;47.402;8.550;2024-01-15T03:45:49;20.36;;;18.74;;
2710;SDS011;20721;47.402;8.550;2024-01-15T03:47:49;20.50;;;18.85;;
2710;SDS011;20721;47.402;8.550;2024-01-15T03:49:49;21.05;;;19.42;;
2710;SDS011;20721;47.402;8.550;2024-01-15T03:51:50;22.06;;;20.43;;
2710;SDS011;20721;47.402;8.550;2024-01-15T03:53:49;21.53;;;20.22;;
2710;SDS011;20721;47.402;8.550;2024-01-15T03:55:49;24.90;;;22.33;;
2710;SDS011;20721;47.402;8.550;2024-01-15T03:57:49;21.43;;;19.53;;
2710;SDS011;20721;47.402;8.550;2024-01-15T03:59:50;19.97;;;18.52;;
2710;SDS011;20721;47.402;8.550;2024-01-15T04:02:49;21.28;;;19.43;;
2710;SDS011;20721;47.402;8.550;2024-01-15T04:04:51;19.16;;;17.85;;
2710;SDS011;20721;47.402;8.550;2024-01-15T04:06:49;19.08;;;17.95;;
2710;SDS011;20721;47.402;8.550;2024-01-15T04:08:54;18.25;;;17.44;;
2710;SDS011;20721;47.402;8.550;2024-01-15T04:10:49;20.27;;;18.85;;
2710;SDS011;20721;47.402;8.550;2024-01-15T04:12:49;17.86;;;17.23;;
2710;SDS011;20721;47.402;8.550;2024-01-15T04:14:54;19.00;;;17.99;;
2710;SDS011;20721;47.402;8.550;2024-01-15T04:16:49;19.11;;;17.91;;
2710;SDS011;20721;47.402;8.550;2024-01-15T04:18:49;19.30;;;17.88;;
2710;SDS011;20721;47.402;8.550;2024-01-15T04:20:49;18.53;;;17.33;;
2710;SDS011;20721;47.402;8.550;2024-01-15T04:22:49;18.39;;;17.12;;
2710;SDS011;20721;47.402;8.550;2024-01-15T04:24:49;18.36;;;17.26;;
2710;SDS011;20721;47.402;8.550;2024-01-15T04:26:49;18.83;;;17.13;;
2710;SDS011;20721;47.402;8.550;2024-01-15T04:28:49;19.14;;;17.93;;
2710;SDS011;20721;47.402;8.550;2024-01-15T04:30:49;16.41;;;15.35;;
2710;SDS011;20721;47.402;8.550;2024-01-15T04:32:49;17.64;;;16.12;;
2710;SDS011;20721;47.402;8.550;2024-01-15T04:36:50;16.71;;;15.66;;
2710;SDS011;20721;47.402;8.550;2024-01-15T04:38:49;18.35;;;17.07;;
2710;SDS011;20721;47.402;8.550;2024-01-15T04:40:49;18.43;;;17.02;;
2710;SDS011;20721;47.402;8.550;2024-01-15T04:44:49;16.44;;;15.33;;
2710;SDS011;20721;47.402;8.550;2024-01-15T04:46:49;18.83;;;17.79;;
2710;SDS011;20721;47.402;8.550;2024-01-15T04:48:49;19.49;;;18.04;;
2710;SDS011;20721;47.402;8.550;2024-01-15T04:50:49;19.35;;;18.05;;
2710;SDS011;20721;47.402;8.550;2024-01-15T04:52:49;18.45;;;17.29;;
2710;SDS011;20721;47.402;8.550;2024-01-15T04:54:49;18.75;;;17.51;;
2710;SDS011;20721;47.402;8.550;2024-01-15T04:56:49;17.54;;;16.47;;
2710;SDS011;20721;47.402;8.550;2024-01-15T04:59:49;17.39;;;16.39;;
2710;SDS011;20721;47.402;8.550;2024-01-15T05:01:49;18.78;;;17.07;;
2710;SDS011;20721;47.402;8.550;2024-01-15T05:03:49;17.66;;;16.52;;
2710;SDS011;20721;47.402;8.550;2024-01-15T05:05:49;17.88;;;17.08;;
2710;SDS011;20721;47.402;8.550;2024-01-15T05:07:49;17.53;;;16.45;;
2710;SDS011;20721;47.402;8.550;2024-01-15T05:13:49;16.60;;;15.33;;
2710;SDS011;20721;47.402;8.550;2024-01-15T05:15:49;15.12;;;14.31;;
2710;SDS011;20721;47.402;8.550;2024-01-15T05:17:49;15.88;;;14.59;;
2710;SDS011;20721;47.402;8.550;2024-01-15T05:19:50;14.29;;;13.61;;
2710;SDS011;20721;47.402;8.550;2024-01-15T05:21:49;14.60;;;13.75;;
2710;SDS011;20721;47.402;8.550;2024-01-15T05:24:49;13.67;;;13.04;;
2710;SDS011;20721;47.402;8.550;2024-01-15T05:27:49;11.67;;;10.96;;
2710;SDS011;20721;47.402;8.550;2024-01-15T05:29:49;12.21;;;11.63;;
2710;SDS011;20721;47.402;8.550;2024-01-15T05:31:49;13.70;;;12.51;;
2710;SDS011;20721;47.402;8.550;2024-01-15T05:33:50;14.25;;;13.17;;
2710;SDS011;20721;47.402;8.550;2024-01-15T05:35:49;13.56;;;12.76;;
2710;SDS011;20721;47.402;8.550;2024-01-15T05:37:53;13.42;;;12.70;;
2710;SDS011;20721;47.402;8.550;2024-01-15T05:39:49;13.23;;;12.34;;
2710;SDS011;20721;47.402;8.550;2024-01-15T05:41:49;13.41;;;12.34;;
2710;SDS011;20721;47.402;8.550;2024-01-15T05:43:49;12.95;;;12.25;;
2710;SDS011;20721;47.402;8.550;2024-01-15T05:45:52;12.54;;;12.08;;
2710;SDS011;20721;47.402;8.550;2024-01-15T05:47:49;12.86;;;12.01;;
2710;SDS011;20721;47.402;8.550;2024-01-15T05:49:49;11.60;;;10.96;;
2710;SDS011;20721;47.402;8.550;2024-01-15T05:51:49;13.41;;;12.48;;
2710;SDS011;20721;47.402;8.550;2024-01-15T05:53:51;12.12;;;11.50;;
2710;SDS011;20721;47.402;8.550;2024-01-15T05:55:49;13.00;;;12.19;;
2710;SDS011;20721;47.402;8.550;2024-01-15T05:57:49;12.01;;;11.38;;
2710;SDS011;20721;47.402;8.550;2024-01-15T05:59:49;12.04;;;11.36;;
2710;SDS011;20721;47.402;8.550;2024-01-15T06:01:49;12.46;;;11.84;;
2710;SDS011;20721;47.402;8.550;2024-01-15T06:03:49;11.67;;;10.97;;
2710;SDS011;20721;47.402;8.550;2024-01-15T06:05:49;11.58;;;10.93;;
2710;SDS011;20721;47.402;8.550;2024-01-15T06:07:49;12.30;;;11.63;;
2710;SDS011;20721;47.402;8.550;2024-01-15T06:09:49;13.08;;;12.45;;
2710;SDS011;20721;47.402;8.550;2024-01-15T06:11:49;12.16;;;11.61;;
2710;SDS011;20721;47.402;8.550;2024-01-15T06:13:49;11.68;;;11.28;;
2710;SDS011;20721;47.402;8.550;2024-01-15T06:15:49;13.40;;;12.95;;
2710;SDS011;20721;47.402;8.550;2024-01-15T06:17:49;12.82;;;12.11;;
2710;SDS011;20721;47.402;8.550;2024-01-15T06:19:50;13.02;;;12.28;;
2710;SDS011;20721;47.402;8.550;2024-01-15T06:21:49;11.10;;;10.67;;
2710;SDS011;20721;47.402;8.550;2024-01-15T06:23:49;12.94;;;12.20;;
2710;SDS011;20721;47.402;8.550;2024-01-15T06:25:49;11.37;;;10.91;;
2710;SDS011;20721;47.402;8.550;2024-01-15T06:27:49;11.78;;;10.94;;
2710;SDS011;20721;47.402;8.550;2024-01-15T06:29:54;10.26;;;9.92;;
2710;SDS011;20721;47.402;8.550;2024-01-15T06:31:49;11.11;;;10.66;;
2710;SDS011;20721;47.402;8.550;2024-01-15T06:33:51;11.09;;;10.53;;
2710;SDS011;20721;47.402;8.550;2024-01-15T06:35:50;10.63;;;10.17;;
2710;SDS011;20721;47.402;8.550;2024-01-15T06:37:49;11.35;;;10.95;;
2710;SDS011;20721;47.402;8.550;2024-01-15T06:39:50;11.32;;;10.90;;
2710;SDS011;20721;47.402;8.550;2024-01-15T06:41:53;11.59;;;11.00;;
2710;SDS011;20721;47.402;8.550;2024-01-15T06:43:49;11.22;;;10.90;;
2710;SDS011;20721;47.402;8.550;2024-01-15T06:46:52;12.18;;;11.68;;
2710;SDS011;20721;47.402;8.550;2024-01-15T06:48:51;11.94;;;11.37;;
2710;SDS011;20721;47.402;8.550;2024-01-15T06:50:50;12.19;;;11.54;;
2710;SDS011;20721;47.402;8.550;2024-01-15T06:52:49;10.81;;;10.48;;
2710;SDS011;20721;47.402;8.550;2024-01-15T06:54:49;10.70;;;10.49;;
2710;SDS011;20721;47.402;8.550;2024-01-15T06:56:49;11.12;;;10.75;;
2710;SDS011;20721;47.402;8.550;2024-01-15T06:58:50;10.74;;;10.33;;
2710;SDS011;20721;47.402;8.550;2024-01-15T07:00:50;12.68;;;12.33;;
2710;SDS011;20721;47.402;8.550;2024-01-15T07:02:49;10.86;;;10.57;;
2710;SDS011;20721;47.402;8.550;2024-01-15T07:04:53;9.39;;;9.05;;
2710;SDS011;20721;47.402;8.550;2024-01-15T07:08:50;9.86;;;9.46;;
2710;SDS011;20721;47.402;8.550;2024-01-15T07:10:51;9.48;;;9.11;;
2710;SDS011;20721;47.402;8.550;2024-01-15T07:13:49;8.64;;;8.41;;
2710;SDS011;20721;47.402;8.550;2024-01-15T07:15:50;9.35;;;9.25;;
2710;SDS011;20721;47.402;8.550;2024-01-15T07:17:49;8.45;;;8.20;;
2710;SDS011;20721;47.402;8.550;2024-01-15T07:20:49;8.18;;;8.01;;
2710;SDS011;20721;47.402;8.550;2024-01-15T07:22:49;8.28;;;7.99;;
2710;SDS011;20721;47.402;8.550;2024-01-15T07:25:49;8.51;;;8.15;;
2710;SDS011;20721;47.402;8.550;2024-01-15T07:27:52;8.92;;;8.58;;
2710;SDS011;20721;47.402;8.550;2024-01-15T07:29:49;8.08;;;7.71;;
2710;SDS011;20721;47.402;8.550;2024-01-15T07:31:50;8.32;;;8.09;;
2710;SDS011;20721;47.402;8.550;2024-01-15T07:33:49;7.63;;;7.39;;
2710;SDS011;20721;47.402;8.550;2024-01-15T07:35:49;8.89;;;8.57;;
2710;SDS011;20721;47.402;8.550;2024-01-15T07:39:50;7.75;;;7.58;;
2710;SDS011;20721;47.402;8.550;2024-01-15T07:41:50;9.25;;;8.87;;
2710;SDS011;20721;47.402;8.550;2024-01-15T07:43:50;8.63;;;8.27;;
2710;SDS011;20721;47.402;8.550;2024-01-15T07:45:52;9.05;;;8.82;;
2710;SDS011;20721;47.402;8.550;2024-01-15T07:47:51;8.56;;;8.27;;
2710;SDS011;20721;47.402;8.550;2024-01-15T07:49:50;9.97;;;9.64;;
2710;SDS011;20721;47.402;8.550;2024-01-15T07:51:51;10.12;;;9.80;;
2710;SDS011;20721;47.402;8.550;2024-01-15T07:53:53;10.13;;;9.54;;
2710;SDS011;20721;47.402;8.550;2024-01-15T07:55:50;10.03;;;9.56;;
2710;SDS011;20721;47.402;8.550;2024-01-15T07:57:50;8.25;;;7.96;;
2710;SDS011;20721;47.402;8.550;2024-01-15T07:59:50;8.96;;;8.64;;
2710;SDS011;20721;47.402;8.550;2024-01-15T08:01:51;8.79;;;8.44;;
2710;SDS011;20721;47.402;8.550;2024-01-15T08:03:50;8.32;;;7.95;;
2710;SDS011;20721;47.402;8.550;2024-01-15T08:05:50;9.37;;;8.98;;
2710;SDS011;20721;47.402;8.550;2024-01-15T08:07:49;8.91;;;8.44;;
2710;SDS011;20721;47.402;8.550;2024-01-15T08:09:50;8.90;;;8.67;;
2710;SDS011;20721;47.402;8.550;2024-01-15T08:11:50;8.46;;;8.29;;
2710;SDS011;20721;47.402;8.550;2024-01-15T08:13:49;8.48;;;8.34;;
2710;SDS011;20721;47.402;8.550;2024-01-15T08:15:50;8.84;;;8.64;;
2710;SDS011;20721;47.402;8.550;2024-01-15T08:17:50;9.07;;;8.82;;
2710;SDS011;20721;47.402;8.550;2024-01-15T08:19:51;8.97;;;8.80;;
2710;SDS011;20721;47.402;8.550;2024-01-15T08:21:50;8.93;;;8.84;;
2710;SDS011;20721;47.402;8.550;2024-01-15T08:23:50;8.70;;;8.47;;
2710;SDS011;20721;47.402;8.550;2024-01-15T08:25:50;8.26;;;8.15;;
2710;SDS011;20721;47.402;8.550;2024-01-15T08:27:50;8.77;;;8.66;;
2710;SDS011;20721;47.402;8.550;2024-01-15T08:29:49;8.62;;;8.40;;
2710;SDS011;20721;47.402;8.550;2024-01-15T08:31:50;8.42;;;8.25;;
2710;SDS011;20721;47.402;8.550;2024-01-15T08:33:50;7.76;;;7.60;;
2710;SDS011;20721;47.402;8.550;2024-01-15T08:35:50;7.69;;;7.48;;
2710;SDS011;20721;47.402;8.550;2024-01-15T08:37:50;8.50;;;8.33;;
2710;SDS011;20721;47.402;8.550;2024-01-15T08:39:50;7.92;;;7.82;;
2710;SDS011;20721;47.402;8.550;2024-01-15T08:41:50;7.87;;;7.78;;
2710;SDS011;20721;47.402;8.550;2024-01-15T08:43:50;8.01;;;7.87;;
2710;SDS011;20721;47.402;8.550;2024-01-15T08:45:50;8.82;;;8.49;;
2710;SDS011;20721;47.402;8.550;2024-01-15T08:47:50;8.18;;;7.92;;
2710;SDS011;20721;47.402;8.550;2024-01-15T08:49:50;7.60;;;7.34;;
2710;SDS011;20721;47.402;8.550;2024-01-15T08:51:50;7.81;;;7.62;;
2710;SDS011;20721;47.402;8.550;2024-01-15T08:53:50;7.73;;;7.59;;
2710;SDS011;20721;47.402;8.550;2024-01-15T08:55:50;6.78;;;6.72;;
2710;SDS011;20721;47.402;8.550;2024-01-15T08:57:50;6.57;;;6.52;;
2710;SDS011;20721;47.402;8.550;2024-01-15T08:59:51;6.43;;;6.39;;
2710;SDS011;20721;47.402;8.550;2024-01-15T09:01:53;6.35;;;6.30;;
2710;SDS011;20721;47.402;8.550;2024-01-15T09:03:51;5.97;;;5.95;;
2710;SDS011;20721;47.402;8.550;2024-01-15T09:05:51;5.77;;;5.75;;
2710;SDS011;20721;47.402;8.550;2024-01-15T09:07:52;6.20;;;6.16;;
2710;SDS011;20721;47.402;8.550;2024-01-15T09:09:52;6.10;;;6.06;;
2710;SDS011;20721;47.402;8.550;2024-01-15T09:11:51;5.82;;;5.75;;
2710;SDS011;20721;47.402;8.550;2024-01-15T09:13:50;5.94;;;5.89;;
2710;SDS011;20721;47.402;8.550;2024-01-15T09:15:50;5.86;;;5.81;;
2710;SDS011;20721;47.402;8.550;2024-01-15T09:17:50;5.75;;;5.74;;
2710;SDS011;20721;47.402;8.550;2024-01-15T09:19:50;5.08;;;5.04;;
2710;SDS011;20721;47.402;8.550;2024-01-15T09:21:50;6.13;;;6.09;;
2710;SDS011;20721;47.402;8.550;2024-01-15T09:23:50;6.07;;;5.98;;
2710;SDS011;20721;47.402;8.550;2024-01-15T09:25:50;5.96;;;5.87;;
2710;SDS011;20721;47.402;8.550;2024-01-15T09:27:50;6.52;;;6.46;;
2710;SDS011;20721;47.402;8.550;2024-01-15T09:29:52;5.74;;;5.72;;
2710;SDS011;20721;47.402;8.550;2024-01-15T09:31:51;5.84;;;5.84;;
2710;SDS011;20721;47.402;8.550;2024-01-15T09:33:50;6.15;;;6.15;;
2710;SDS011;20721;47.402;8.550;2024-01-15T09:35:50;5.89;;;5.84;;
2710;SDS011;20721;47.402;8.550;2024-01-15T09:37:58;5.52;;;5.51;;
2710;SDS011;20721;47.402;8.550;2024-01-15T09:39:50;5.67;;;5.58;;
2710;SDS011;20721;47.402;8.550;2024-01-15T09:41:50;6.09;;;6.03;;
2710;SDS011;20721;47.402;8.550;2024-01-15T09:43:50;6.78;;;6.70;;
2710;SDS011;20721;47.402;8.550;2024-01-15T09:45:50;6.46;;;6.46;;
2710;SDS011;20721;47.402;8.550;2024-01-15T09:47:58;6.84;;;6.74;;
2710;SDS011;20721;47.402;8.550;2024-01-15T09:49:51;6.91;;;6.80;;
2710;SDS011;20721;47.402;8.550;2024-01-15T09:51:51;6.18;;;6.05;;
2710;SDS011;20721;47.402;8.550;2024-01-15T09:53:51;6.58;;;6.46;;
2710;SDS011;20721;47.402;8.550;2024-01-15T09:55:50;7.31;;;7.24;;
2710;SDS011;20721;47.402;8.550;2024-01-15T09:57:50;5.36;;;5.28;;
2710;SDS011;20721;47.402;8.550;2024-01-15T09:59:52;5.95;;;5.85;;
2710;SDS011;20721;47.402;8.550;2024-01-15T10:01:50;6.00;;;6.00;;
2710;SDS011;20721;47.402;8.550;2024-01-15T10:03:50;6.51;;;6.47;;
2710;SDS011;20721;47.402;8.550;2024-01-15T10:05:50;6.27;;;6.23;;
2710;SDS011;20721;47.402;8.550;2024-01-15T10:07:50;6.82;;;6.78;;
2710;SDS011;20721;47.402;8.550;2024-01-15T10:10:50;6.43;;;6.33;;
2710;SDS011;20721;47.402;8.550;2024-01-15T10:12:50;6.85;;;6.80;;
2710;SDS011;20721;47.402;8.550;2024-01-15T10:14:50;6.43;;;6.41;;
2710;SDS011;20721;47.402;8.550;2024-01-15T10:16:50;6.19;;;6.10;;
2710;SDS011;20721;47.402;8.550;2024-01-15T10:18:50;5.89;;;5.87;;
2710;SDS011;20721;47.402;8.550;2024-01-15T10:20:50;4.90;;;4.89;;
2710;SDS011;20721;47.402;8.550;2024-01-15T10:22:51;5.86;;;5.81;;
2710;SDS011;20721;47.402;8.550;2024-01-15T10:24:51;6.32;;;6.30;;
2710;SDS011;20721;47.402;8.550;2024-01-15T10:26:50;5.90;;;5.85;;
2710;SDS011;20721;47.402;8.550;2024-01-15T10:28:51;5.91;;;5.82;;
2710;SDS011;20721;47.402;8.550;2024-01-15T10:30:51;6.18;;;6.13;;
2710;SDS011;20721;47.402;8.550;2024-01-15T10:32:58;6.22;;;6.14;;
2710;SDS011;20721;47.402;8.550;2024-01-15T10:34:51;6.75;;;6.73;;
2710;SDS011;20721;47.402;8.550;2024-01-15T10:36:50;6.01;;;6.00;;
2710;SDS011;20721;47.402;8.550;2024-01-15T10:38:50;6.45;;;6.34;;
2710;SDS011;20721;47.402;8.550;2024-01-15T10:40:51;6.29;;;6.25;;
2710;SDS011;20721;47.402;8.550;2024-01-15T10:42:51;6.52;;;6.49;;
2710;SDS011;20721;47.402;8.550;2024-01-15T10:46:50;7.21;;;7.14;;
2710;SDS011;20721;47.402;8.550;2024-01-15T10:48:50;5.57;;;5.49;;
2710;SDS011;20721;47.402;8.550;2024-01-15T10:50:50;6.07;;;6.03;;
2710;SDS011;20721;47.402;8.550;2024-01-15T10:52:54;6.36;;;6.32;;
2710;SDS011;20721;47.402;8.550;2024-01-15T10:54:51;6.71;;;6.68;;
2710;SDS011;20721;47.402;8.550;2024-01-15T10:56:51;6.34;;;6.27;;
2710;SDS011;20721;47.402;8.550;2024-01-15T10:58:54;6.83;;;6.79;;
2710;SDS011;20721;47.402;8.550;2024-01-15T11:00:50;6.92;;;6.89;;
2710;SDS011;20721;47.402;8.550;2024-01-15T11:02:50;6.18;;;6.12;;
2710;SDS011;20721;47.402;8.550;2024-01-15T11:04:50;6.04;;;5.92;;
2710;SDS011;20721;47.402;8.550;2024-01-15T11:06:52;6.58;;;6.48;;
2710;SDS011;20721;47.402;8.550;2024-01-15T11:08:52;6.60;;;6.55;;
2710;SDS011;20721;47.402;8.550;2024-01-15T11:10:57;6.74;;;6.63;;
2710;SDS011;20721;47.402;8.550;2024-01-15T11:12:51;6.97;;;6.87;;
2710;SDS011;20721;47.402;8.550;2024-01-15T11:14:50;6.46;;;6.34;;
2710;SDS011;20721;47.402;8.550;2024-01-15T11:17:10;6.97;;;6.84;;
2710;SDS011;20721;47.402;8.550;2024-01-15T11:19:01;7.50;;;7.39;;
2710;SDS011;20721;47.402;8.550;2024-01-15T11:22:58;6.51;;;6.43;;
2710;SDS011;20721;47.402;8.550;2024-01-15T11:24:50;7.05;;;6.95;;
2710;SDS011;20721;47.402;8.550;2024-01-15T11:26:50;7.03;;;6.96;;
2710;SDS011;20721;47.402;8.550;2024-01-15T11:28:57;6.80;;;6.67;;
2710;SDS011;20721;47.402;8.550;2024-01-15T11:30:50;6.57;;;6.50;;
2710;SDS011;20721;47.402;8.550;2024-01-15T11:32:52;6.26;;;6.24;;
2710;SDS011;20721;47.402;8.550;2024-01-15T11:35:10;5.64;;;5.63;;
2710;SDS011;20721;47.402;8.550;2024-01-15T11:37:21;6.74;;;6.71;;
2710;SDS011;20721;47.402;8.550;2024-01-15T11:38:50;6.40;;;6.32;;
2710;SDS011;20721;47.402;8.550;2024-01-15T11:40:54;6.89;;;6.78;;
2710;SDS011;20721;47.402;8.550;2024-01-15T11:42:50;6.24;;;6.12;;
2710;SDS011;20721;47.402;8.550;2024-01-15T11:44:50;6.81;;;6.76;;
2710;SDS011;20721;47.402;8.550;2024-01-15T11:46:59;6.55;;;6.49;;
2710;SDS011;20721;47.402;8.550;2024-01-15T11:48:53;6.74;;;6.68;;
2710;SDS011;20721;47.402;8.550;2024-01-15T11:50:54;7.11;;;7.03;;
2710;SDS011;20721;47.402;8.550;2024-01-15T11:53:00;6.36;;;6.29;;
2710;SDS011;20721;47.402;8.550;2024-01-15T11:54:56;6.94;;;6.88;;
2710;SDS011;20721;47.402;8.550;2024-01-15T11:56:50;6.36;;;6.27;;
2710;SDS011;20721;47.402;8.550;2024-01-15T11:58:50;5.99;;;5.93;;
2710;SDS011;20721;47.402;8.550;2024-01-15T12:00:53;5.44;;;5.44;;
2710;SDS011;20721;47.402;8.550;2024-01-15T12:02:52;6.70;;;6.62;;
2710;SDS011;20721;47.402;8.550;2024-01-15T12:04:50;5.99;;;5.96;;
2710;SDS011;20721;47.402;8.550;2024-01-15T12:06:55;6.11;;;6.11;;
2710;SDS011;20721;47.402;8.550;2024-01-15T12:08:50;6.38;;;6.38;;
2710;SDS011;20721;47.402;8.550;2024-01-15T12:10:51;7.04;;;7.02;;
2710;SDS011;20721;47.402;8.550;2024-01-15T12:14:50;6.28;;;6.18;;
2710;SDS011;20721;47.402;8.550;2024-01-15T12:16:50;6.06;;;6.02;;
2710;SDS011;20721;47.402;8.550;2024-01-15T12:18:50;6.76;;;6.71;;
2710;SDS011;20721;47.402;8.550;2024-01-15T12:20:53;6.65;;;6.59;;
2710;SDS011;20721;47.402;8.550;2024-01-15T12:23:00;6.38;;;6.32;;
2710;SDS011;20721;47.402;8.550;2024-01-15T12:24:50;7.10;;;7.04;;
2710;SDS011;20721;47.402;8.550;2024-01-15T12:26:50;6.29;;;6.29;;
2710;SDS011;20721;47.402;8.550;2024-01-15T12:28:50;7.14;;;7.07;;
2710;SDS011;20721;47.402;8.550;2024-01-15T12:30:50;6.08;;;6.02;;
2710;SDS011;20721;47.402;8.550;2024-01-15T12:32:51;10.43;;;10.33;;
2710;SDS011;20721;47.402;8.550;2024-01-15T12:34:50;6.94;;;6.83;;
2710;SDS011;20721;47.402;8.550;2024-01-15T12:36:50;7.10;;;7.01;;
2710;SDS011;20721;47.402;8.550;2024-01-15T12:39:53;8.04;;;7.96;;
2710;SDS011;20721;47.402;8.550;2024-01-15T12:41:51;7.79;;;7.68;;
2710;SDS011;20721;47.402;8.550;2024-01-15T12:43:55;7.33;;;7.27;;
2710;SDS011;20721;47.402;8.550;2024-01-15T12:45:50;7.07;;;6.97;;
2710;SDS011;20721;47.402;8.550;2024-01-15T12:47:51;6.79;;;6.77;;
2710;SDS011;20721;47.402;8.550;2024-01-15T12:49:55;6.81;;;6.74;;
2710;SDS011;20721;47.402;8.550;2024-01-15T12:51:52;7.60;;;7.56;;